sensor_id;sensor_type;location;lat;lon;timestamp;P1;durP1;ratioP1;P2;durP2;ratioP2
16669;SDS011;8448;52.034;5.158;2022-12-10T00:01:52;83.70;;;32.27;;
16669;SDS011;8448;52.034;5.158;2022-12-10T00:04:20;80.93;;;31.93;;
16669;SDS011;8448;52.034;5.158;2022-12-10T00:06:48;83.30;;;33.50;;
16669;SDS011;8448;52.034;5.158;2022-12-10T00:09:16;79.40;;;33.17;;
16669;SDS011;8448;52.034;5.158;2022-12-10T00:11:44;85.53;;;32.30;;
16669;SDS011;8448;52.034;5.158;2022-12-10T00:14:12;83.70;;;32.17;;
16669;SDS011;8448;52.034;5.158;2022-12-10T00:16:40;91.33;;;34.27;;
16669;SDS011;8448;52.034;5.158;2022-12-10T00:19:09;85.70;;;32.70;;
16669;SDS011;8448;52.034;5.158;2022-12-10T00:21:36;86.40;;;31.73;;
16669;SDS011;8448;52.034;5.158;2022-12-10T00:24:04;85.77;;;32.67;;
16669;SDS011;8448;52.034;5.158;2022-12-10T00:26:33;85.57;;;33.50;;
16669;SDS011;8448;52.034;5.158;2022-12-10T00:29:03;87.47;;;31.93;;
16669;SDS011;8448;52.034;5.158;2022-12-10T00:31:32;77.50;;;31.00;;
16669;SDS011;8448;52.034;5.158;2022-12-10T00:34:02;82.20;;;32.37;;
16669;SDS011;8448;52.034;5.158;2022-12-10T00:36:32;85.17;;;33.13;;
16669;SDS011;8448;52.034;5.158;2022-12-10T00:39:00;84.77;;;32.50;;
16669;SDS011;8448;52.034;5.158;2022-12-10T00:41:28;89.80;;;33.13;;
16669;SDS011;8448;52.034;5.158;2022-12-10T00:43:55;81.53;;;31.70;;
16669;SDS011;8448;52.034;5.158;2022-12-10T00:46:23;88.03;;;31.97;;
16669;SDS011;8448;52.034;5.158;2022-12-10T00:48:50;85.37;;;32.00;;
16669;SDS011;8448;52.034;5.158;2022-12-10T00:51:18;85.37;;;31.90;;
16669;SDS011;8448;52.034;5.158;2022-12-10T00:53:49;91.87;;;33.07;;
16669;SDS011;8448;52.034;5.158;2022-12-10T00:58:47;96.70;;;33.03;;
16669;SDS011;8448;52.034;5.158;2022-12-10T01:01:16;88.07;;;32.60;;
16669;SDS011;8448;52.034;5.158;2022-12-10T01:03:45;94.20;;;32.23;;
16669;SDS011;8448;52.034;5.158;2022-12-10T01:06:15;92.60;;;33.13;;
16669;SDS011;8448;52.034;5.158;2022-12-10T01:08:44;92.17;;;33.77;;
16669;SDS011;8448;52.034;5.158;2022-12-10T01:11:14;102.20;;;34.90;;
16669;SDS011;8448;52.034;5.158;2022-12-10T01:13:42;99.43;;;34.83;;
16669;SDS011;8448;52.034;5.158;2022-12-10T01:16:11;99.60;;;35.10;;
16669;SDS011;8448;52.034;5.158;2022-12-10T01:18:39;94.53;;;33.93;;
16669;SDS011;8448;52.034;5.158;2022-12-10T01:21:08;106.17;;;33.60;;
16669;SDS011;8448;52.034;5.158;2022-12-10T01:23:37;115.27;;;35.13;;
16669;SDS011;8448;52.034;5.158;2022-12-10T01:26:07;102.60;;;34.13;;
16669;SDS011;8448;52.034;5.158;2022-12-10T01:28:38;107.33;;;34.70;;
16669;SDS011;8448;52.034;5.158;2022-12-10T01:31:06;97.93;;;34.73;;
16669;SDS011;8448;52.034;5.158;2022-12-10T01:33:36;99.73;;;33.70;;
16669;SDS011;8448;52.034;5.158;2022-12-10T01:36:05;106.83;;;35.30;;
16669;SDS011;8448;52.034;5.158;2022-12-10T01:38:34;106.87;;;35.80;;
16669;SDS011;8448;52.034;5.158;2022-12-10T01:41:04;111.33;;;34.73;;
16669;SDS011;8448;52.034;5.158;2022-12-10T01:46:20;104.00;;;33.77;;
16669;SDS011;8448;52.034;5.158;2022-12-10T01:48:48;151.47;;;36.83;;
16669;SDS011;8448;52.034;5.158;2022-12-10T01:51:16;102.23;;;34.77;;
16669;SDS011;8448;52.034;5.158;2022-12-10T01:53:44;138.73;;;34.23;;
16669;SDS011;8448;52.034;5.158;2022-12-10T01:56:12;96.17;;;33.17;;
16669;SDS011;8448;52.034;5.158;2022-12-10T01:58:42;157.93;;;35.63;;
16669;SDS011;8448;52.034;5.158;2022-12-10T02:01:13;123.27;;;35.73;;
16669;SDS011;8448;52.034;5.158;2022-12-10T02:03:46;96.40;;;34.00;;
16669;SDS011;8448;52.034;5.158;2022-12-10T02:06:25;104.47;;;32.80;;
16669;SDS011;8448;52.034;5.158;2022-12-10T02:09:01;110.40;;;33.93;;
16669;SDS011;8448;52.034;5.158;2022-12-10T02:11:37;110.83;;;33.57;;
16669;SDS011;8448;52.034;5.158;2022-12-10T02:14:14;97.27;;;32.80;;
16669;SDS011;8448;52.034;5.158;2022-12-10T02:16:48;102.70;;;34.60;;
16669;SDS011;8448;52.034;5.158;2022-12-10T02:19:22;99.80;;;33.93;;
16669;SDS011;8448;52.034;5.158;2022-12-10T02:21:56;100.40;;;32.77;;
16669;SDS011;8448;52.034;5.158;2022-12-10T02:24:25;102.43;;;33.20;;
16669;SDS011;8448;52.034;5.158;2022-12-10T02:26:58;86.73;;;31.20;;
16669;SDS011;8448;52.034;5.158;2022-12-10T02:29:31;99.27;;;33.23;;
16669;SDS011;8448;52.034;5.158;2022-12-10T02:32:00;99.67;;;33.07;;
16669;SDS011;8448;52.034;5.158;2022-12-10T02:34:32;108.90;;;33.40;;
16669;SDS011;8448;52.034;5.158;2022-12-10T02:37:04;93.30;;;32.80;;
16669;SDS011;8448;52.034;5.158;2022-12-10T02:39:37;89.87;;;30.90;;
16669;SDS011;8448;52.034;5.158;2022-12-10T02:42:06;132.20;;;31.33;;
16669;SDS011;8448;52.034;5.158;2022-12-10T02:44:36;100.40;;;30.97;;
16669;SDS011;8448;52.034;5.158;2022-12-10T02:47:05;93.67;;;30.40;;
16669;SDS011;8448;52.034;5.158;2022-12-10T02:49:37;101.40;;;31.57;;
16669;SDS011;8448;52.034;5.158;2022-12-10T02:52:06;117.13;;;33.60;;
16669;SDS011;8448;52.034;5.158;2022-12-10T02:54:36;106.70;;;33.20;;
16669;SDS011;8448;52.034;5.158;2022-12-10T02:57:12;151.10;;;34.03;;
16669;SDS011;8448;52.034;5.158;2022-12-10T02:59:59;104.17;;;33.20;;
16669;SDS011;8448;52.034;5.158;2022-12-10T03:02:56;134.77;;;33.17;;
16669;SDS011;8448;52.034;5.158;2022-12-10T03:05:35;95.70;;;31.93;;
16669;SDS011;8448;52.034;5.158;2022-12-10T03:08:09;133.23;;;31.37;;
16669;SDS011;8448;52.034;5.158;2022-12-10T03:10:41;103.43;;;32.27;;
16669;SDS011;8448;52.034;5.158;2022-12-10T03:13:12;192.87;;;35.57;;
16669;SDS011;8448;52.034;5.158;2022-12-10T03:15:42;106.00;;;32.90;;
16669;SDS011;8448;52.034;5.158;2022-12-10T03:18:10;115.00;;;34.47;;
16669;SDS011;8448;52.034;5.158;2022-12-10T03:20:38;106.53;;;33.47;;
16669;SDS011;8448;52.034;5.158;2022-12-10T03:23:09;175.83;;;36.17;;
16669;SDS011;8448;52.034;5.158;2022-12-10T03:25:40;190.83;;;35.67;;
16669;SDS011;8448;52.034;5.158;2022-12-10T03:28:07;133.43;;;35.17;;
16669;SDS011;8448;52.034;5.158;2022-12-10T03:30:35;132.97;;;34.80;;
16669;SDS011;8448;52.034;5.158;2022-12-10T03:33:05;115.27;;;34.17;;
16669;SDS011;8448;52.034;5.158;2022-12-10T03:35:32;105.57;;;34.23;;
16669;SDS011;8448;52.034;5.158;2022-12-10T03:38:00;112.40;;;34.33;;
16669;SDS011;8448;52.034;5.158;2022-12-10T03:40:28;112.13;;;33.60;;
16669;SDS011;8448;52.034;5.158;2022-12-10T03:42:55;118.53;;;36.87;;
16669;SDS011;8448;52.034;5.158;2022-12-10T03:45:22;155.80;;;37.57;;
16669;SDS011;8448;52.034;5.158;2022-12-10T03:47:50;211.60;;;40.80;;
16669;SDS011;8448;52.034;5.158;2022-12-10T03:50:19;133.83;;;36.80;;
16669;SDS011;8448;52.034;5.158;2022-12-10T03:52:46;139.73;;;38.97;;
16669;SDS011;8448;52.034;5.158;2022-12-10T03:55:13;153.50;;;39.47;;
16669;SDS011;8448;52.034;5.158;2022-12-10T03:57:41;169.60;;;40.93;;
16669;SDS011;8448;52.034;5.158;2022-12-10T04:00:09;271.27;;;41.63;;
16669;SDS011;8448;52.034;5.158;2022-12-10T04:02:37;116.03;;;36.13;;
16669;SDS011;8448;52.034;5.158;2022-12-10T04:05:05;121.87;;;36.00;;
16669;SDS011;8448;52.034;5.158;2022-12-10T04:07:34;118.43;;;37.03;;
16669;SDS011;8448;52.034;5.158;2022-12-10T04:10:02;132.53;;;36.23;;
16669;SDS011;8448;52.034;5.158;2022-12-10T04:12:29;247.13;;;38.57;;
16669;SDS011;8448;52.034;5.158;2022-12-10T04:14:57;97.20;;;33.63;;
16669;SDS011;8448;52.034;5.158;2022-12-10T04:17:42;143.13;;;34.73;;
16669;SDS011;8448;52.034;5.158;2022-12-10T04:20:10;143.23;;;34.90;;
16669;SDS011;8448;52.034;5.158;2022-12-10T04:22:53;135.97;;;33.30;;
16669;SDS011;8448;52.034;5.158;2022-12-10T04:25:38;145.60;;;35.67;;
16669;SDS011;8448;52.034;5.158;2022-12-10T04:28:23;101.20;;;32.57;;
16669;SDS011;8448;52.034;5.158;2022-12-10T04:30:50;170.23;;;34.53;;
16669;SDS011;8448;52.034;5.158;2022-12-10T04:33:18;146.77;;;32.57;;
16669;SDS011;8448;52.034;5.158;2022-12-10T04:35:45;105.00;;;32.43;;
16669;SDS011;8448;52.034;5.158;2022-12-10T04:38:14;182.10;;;33.07;;
16669;SDS011;8448;52.034;5.158;2022-12-10T04:40:41;126.10;;;29.87;;
16669;SDS011;8448;52.034;5.158;2022-12-10T04:43:08;138.70;;;32.23;;
16669;SDS011;8448;52.034;5.158;2022-12-10T04:45:36;134.50;;;31.90;;
16669;SDS011;8448;52.034;5.158;2022-12-10T04:48:04;99.03;;;33.50;;
16669;SDS011;8448;52.034;5.158;2022-12-10T04:50:33;158.40;;;32.83;;
16669;SDS011;8448;52.034;5.158;2022-12-10T04:53:01;84.27;;;31.60;;
16669;SDS011;8448;52.034;5.158;2022-12-10T04:55:29;99.40;;;32.67;;
16669;SDS011;8448;52.034;5.158;2022-12-10T04:57:57;190.27;;;33.47;;
16669;SDS011;8448;52.034;5.158;2022-12-10T05:00:24;105.60;;;31.27;;
16669;SDS011;8448;52.034;5.158;2022-12-10T05:02:51;103.03;;;30.77;;
16669;SDS011;8448;52.034;5.158;2022-12-10T05:05:19;186.83;;;33.23;;
16669;SDS011;8448;52.034;5.158;2022-12-10T05:07:46;211.93;;;35.63;;
16669;SDS011;8448;52.034;5.158;2022-12-10T05:10:14;92.57;;;32.00;;
16669;SDS011;8448;52.034;5.158;2022-12-10T05:12:42;148.07;;;33.37;;
16669;SDS011;8448;52.034;5.158;2022-12-10T05:15:10;123.53;;;32.37;;
16669;SDS011;8448;52.034;5.158;2022-12-10T05:17:37;105.27;;;30.70;;
16669;SDS011;8448;52.034;5.158;2022-12-10T05:20:05;146.80;;;32.77;;
16669;SDS011;8448;52.034;5.158;2022-12-10T05:22:33;90.03;;;30.73;;
16669;SDS011;8448;52.034;5.158;2022-12-10T05:25:18;138.87;;;31.90;;
16669;SDS011;8448;52.034;5.158;2022-12-10T05:27:47;93.40;;;31.03;;
16669;SDS011;8448;52.034;5.158;2022-12-10T05:30:14;93.87;;;30.20;;
16669;SDS011;8448;52.034;5.158;2022-12-10T05:32:42;146.90;;;33.67;;
16669;SDS011;8448;52.034;5.158;2022-12-10T05:35:09;139.00;;;34.07;;
16669;SDS011;8448;52.034;5.158;2022-12-10T05:37:37;107.93;;;31.33;;
16669;SDS011;8448;52.034;5.158;2022-12-10T05:40:05;169.83;;;34.23;;
16669;SDS011;8448;52.034;5.158;2022-12-10T05:42:33;98.63;;;31.10;;
16669;SDS011;8448;52.034;5.158;2022-12-10T05:45:02;141.90;;;32.27;;
16669;SDS011;8448;52.034;5.158;2022-12-10T05:47:29;102.00;;;31.30;;
16669;SDS011;8448;52.034;5.158;2022-12-10T05:49:58;81.43;;;30.43;;
16669;SDS011;8448;52.034;5.158;2022-12-10T05:52:25;101.97;;;32.07;;
16669;SDS011;8448;52.034;5.158;2022-12-10T05:54:53;92.63;;;31.67;;
16669;SDS011;8448;52.034;5.158;2022-12-10T05:57:20;160.77;;;33.50;;
16669;SDS011;8448;52.034;5.158;2022-12-10T05:59:47;188.27;;;35.13;;
16669;SDS011;8448;52.034;5.158;2022-12-10T06:02:16;181.40;;;36.13;;
16669;SDS011;8448;52.034;5.158;2022-12-10T06:04:44;122.60;;;33.93;;
16669;SDS011;8448;52.034;5.158;2022-12-10T06:07:11;196.13;;;37.00;;
16669;SDS011;8448;52.034;5.158;2022-12-10T06:09:38;107.93;;;32.87;;
16669;SDS011;8448;52.034;5.158;2022-12-10T06:12:06;165.70;;;35.47;;
16669;SDS011;8448;52.034;5.158;2022-12-10T06:14:33;92.00;;;34.10;;
16669;SDS011;8448;52.034;5.158;2022-12-10T06:17:00;119.10;;;34.63;;
16669;SDS011;8448;52.034;5.158;2022-12-10T06:19:29;110.73;;;32.63;;
16669;SDS011;8448;52.034;5.158;2022-12-10T06:21:57;91.60;;;33.17;;
16669;SDS011;8448;52.034;5.158;2022-12-10T06:24:24;164.60;;;35.70;;
16669;SDS011;8448;52.034;5.158;2022-12-10T06:26:52;115.20;;;34.03;;
16669;SDS011;8448;52.034;5.158;2022-12-10T06:29:19;114.70;;;34.50;;
16669;SDS011;8448;52.034;5.158;2022-12-10T06:31:46;123.57;;;38.00;;
16669;SDS011;8448;52.034;5.158;2022-12-10T06:34:14;299.97;;;40.40;;
16669;SDS011;8448;52.034;5.158;2022-12-10T06:36:42;141.67;;;33.83;;
16669;SDS011;8448;52.034;5.158;2022-12-10T06:39:10;146.70;;;36.63;;
16669;SDS011;8448;52.034;5.158;2022-12-10T06:41:37;119.37;;;33.20;;
16669;SDS011;8448;52.034;5.158;2022-12-10T06:44:08;102.10;;;33.83;;
16669;SDS011;8448;52.034;5.158;2022-12-10T06:46:36;213.02;;;48.25;;
16669;SDS011;8448;52.034;5.158;2022-12-10T06:49:05;96.27;;;36.37;;
16669;SDS011;8448;52.034;5.158;2022-12-10T06:51:32;202.10;;;37.37;;
16669;SDS011;8448;52.034;5.158;2022-12-10T06:54:01;146.27;;;35.67;;
16669;SDS011;8448;52.034;5.158;2022-12-10T06:56:29;231.60;;;35.43;;
16669;SDS011;8448;52.034;5.158;2022-12-10T06:58:56;82.67;;;31.23;;
16669;SDS011;8448;52.034;5.158;2022-12-10T07:01:24;110.97;;;33.17;;
16669;SDS011;8448;52.034;5.158;2022-12-10T07:03:52;140.33;;;33.27;;
16669;SDS011;8448;52.034;5.158;2022-12-10T07:06:21;95.60;;;35.87;;
16669;SDS011;8448;52.034;5.158;2022-12-10T07:08:49;112.13;;;33.50;;
16669;SDS011;8448;52.034;5.158;2022-12-10T07:11:19;82.27;;;30.83;;
16669;SDS011;8448;52.034;5.158;2022-12-10T07:13:48;115.50;;;32.63;;
16669;SDS011;8448;52.034;5.158;2022-12-10T07:16:16;120.80;;;32.00;;
16669;SDS011;8448;52.034;5.158;2022-12-10T07:18:45;118.60;;;41.33;;
16669;SDS011;8448;52.034;5.158;2022-12-10T07:21:13;98.70;;;32.97;;
16669;SDS011;8448;52.034;5.158;2022-12-10T07:23:41;134.77;;;38.85;;
16669;SDS011;8448;52.034;5.158;2022-12-10T07:26:09;103.07;;;33.27;;
16669;SDS011;8448;52.034;5.158;2022-12-10T07:28:38;109.17;;;33.93;;
16669;SDS011;8448;52.034;5.158;2022-12-10T07:31:06;103.83;;;32.53;;
16669;SDS011;8448;52.034;5.158;2022-12-10T07:33:34;98.93;;;33.10;;
16669;SDS011;8448;52.034;5.158;2022-12-10T07:36:03;102.93;;;32.57;;
16669;SDS011;8448;52.034;5.158;2022-12-10T07:38:31;95.10;;;32.13;;
16669;SDS011;8448;52.034;5.158;2022-12-10T07:41:01;133.87;;;32.87;;
16669;SDS011;8448;52.034;5.158;2022-12-10T07:43:29;92.63;;;31.17;;
16669;SDS011;8448;52.034;5.158;2022-12-10T07:46:03;102.27;;;29.60;;
16669;SDS011;8448;52.034;5.158;2022-12-10T07:48:31;90.30;;;30.27;;
16669;SDS011;8448;52.034;5.158;2022-12-10T07:51:00;86.83;;;29.40;;
16669;SDS011;8448;52.034;5.158;2022-12-10T07:53:28;87.97;;;30.07;;
16669;SDS011;8448;52.034;5.158;2022-12-10T07:55:56;128.27;;;33.30;;
16669;SDS011;8448;52.034;5.158;2022-12-10T07:58:23;91.63;;;31.33;;
16669;SDS011;8448;52.034;5.158;2022-12-10T08:00:51;98.87;;;31.63;;
16669;SDS011;8448;52.034;5.158;2022-12-10T08:03:20;115.17;;;31.10;;
16669;SDS011;8448;52.034;5.158;2022-12-10T08:05:49;89.00;;;30.90;;
16669;SDS011;8448;52.034;5.158;2022-12-10T08:08:26;104.27;;;30.20;;
16669;SDS011;8448;52.034;5.158;2022-12-10T08:10:53;104.53;;;32.47;;
16669;SDS011;8448;52.034;5.158;2022-12-10T08:13:21;95.67;;;30.83;;
16669;SDS011;8448;52.034;5.158;2022-12-10T08:15:48;94.50;;;30.03;;
16669;SDS011;8448;52.034;5.158;2022-12-10T08:18:15;165.13;;;33.00;;
16669;SDS011;8448;52.034;5.158;2022-12-10T08:20:44;99.03;;;31.43;;
16669;SDS011;8448;52.034;5.158;2022-12-10T08:23:12;106.33;;;31.27;;
16669;SDS011;8448;52.034;5.158;2022-12-10T08:25:39;117.67;;;31.50;;
16669;SDS011;8448;52.034;5.158;2022-12-10T08:28:06;107.13;;;29.83;;
16669;SDS011;8448;52.034;5.158;2022-12-10T08:30:34;78.17;;;29.07;;
16669;SDS011;8448;52.034;5.158;2022-12-10T08:33:01;85.67;;;28.50;;
16669;SDS011;8448;52.034;5.158;2022-12-10T08:35:29;93.37;;;29.30;;
16669;SDS011;8448;52.034;5.158;2022-12-10T08:37:57;139.57;;;29.33;;
16669;SDS011;8448;52.034;5.158;2022-12-10T08:40:25;160.83;;;30.97;;
16669;SDS011;8448;52.034;5.158;2022-12-10T08:42:52;102.77;;;29.37;;
16669;SDS011;8448;52.034;5.158;2022-12-10T08:45:20;116.80;;;28.33;;
16669;SDS011;8448;52.034;5.158;2022-12-10T08:47:48;82.13;;;27.80;;
16669;SDS011;8448;52.034;5.158;2022-12-10T08:50:16;119.03;;;28.60;;
16669;SDS011;8448;52.034;5.158;2022-12-10T08:52:44;104.37;;;28.23;;
16669;SDS011;8448;52.034;5.158;2022-12-10T08:55:12;77.33;;;25.30;;
16669;SDS011;8448;52.034;5.158;2022-12-10T08:57:40;114.07;;;29.60;;
16669;SDS011;8448;52.034;5.158;2022-12-10T09:00:08;102.40;;;28.47;;
16669;SDS011;8448;52.034;5.158;2022-12-10T09:02:38;88.93;;;27.13;;
16669;SDS011;8448;52.034;5.158;2022-12-10T09:05:05;95.90;;;28.60;;
16669;SDS011;8448;52.034;5.158;2022-12-10T09:07:33;95.87;;;28.67;;
16669;SDS011;8448;52.034;5.158;2022-12-10T09:10:01;105.37;;;29.87;;
16669;SDS011;8448;52.034;5.158;2022-12-10T09:12:30;110.73;;;28.73;;
16669;SDS011;8448;52.034;5.158;2022-12-10T09:14:58;81.80;;;24.93;;
16669;SDS011;8448;52.034;5.158;2022-12-10T09:17:26;93.60;;;26.93;;
16669;SDS011;8448;52.034;5.158;2022-12-10T09:19:53;91.03;;;26.50;;
16669;SDS011;8448;52.034;5.158;2022-12-10T09:22:21;83.37;;;27.33;;
16669;SDS011;8448;52.034;5.158;2022-12-10T09:24:49;90.27;;;26.67;;
16669;SDS011;8448;52.034;5.158;2022-12-10T09:27:16;86.87;;;26.23;;
16669;SDS011;8448;52.034;5.158;2022-12-10T09:29:48;88.97;;;26.90;;
16669;SDS011;8448;52.034;5.158;2022-12-10T09:32:17;90.60;;;26.87;;
16669;SDS011;8448;52.034;5.158;2022-12-10T09:34:46;88.70;;;26.60;;
16669;SDS011;8448;52.034;5.158;2022-12-10T09:37:16;106.00;;;27.27;;
16669;SDS011;8448;52.034;5.158;2022-12-10T09:39:43;95.00;;;27.43;;
16669;SDS011;8448;52.034;5.158;2022-12-10T09:42:18;91.27;;;27.10;;
16669;SDS011;8448;52.034;5.158;2022-12-10T09:44:57;90.07;;;28.00;;
16669;SDS011;8448;52.034;5.158;2022-12-10T09:47:31;109.53;;;25.90;;
16669;SDS011;8448;52.034;5.158;2022-12-10T09:50:09;79.57;;;25.47;;
16669;SDS011;8448;52.034;5.158;2022-12-10T09:52:43;81.90;;;26.03;;
16669;SDS011;8448;52.034;5.158;2022-12-10T09:55:13;91.00;;;27.63;;
16669;SDS011;8448;52.034;5.158;2022-12-10T09:57:42;92.77;;;26.60;;
16669;SDS011;8448;52.034;5.158;2022-12-10T10:00:20;104.10;;;27.73;;
16669;SDS011;8448;52.034;5.158;2022-12-10T10:02:50;111.03;;;28.57;;
16669;SDS011;8448;52.034;5.158;2022-12-10T10:05:22;101.63;;;28.33;;
16669;SDS011;8448;52.034;5.158;2022-12-10T10:07:56;92.83;;;28.07;;
16669;SDS011;8448;52.034;5.158;2022-12-10T10:10:26;92.23;;;28.20;;
16669;SDS011;8448;52.034;5.158;2022-12-10T10:12:55;96.60;;;28.20;;
16669;SDS011;8448;52.034;5.158;2022-12-10T10:15:27;104.53;;;29.30;;
16669;SDS011;8448;52.034;5.158;2022-12-10T10:18:00;94.40;;;28.30;;
16669;SDS011;8448;52.034;5.158;2022-12-10T10:20:34;97.17;;;28.90;;
16669;SDS011;8448;52.034;5.158;2022-12-10T10:23:03;103.57;;;29.03;;
16669;SDS011;8448;52.034;5.158;2022-12-10T10:25:31;96.77;;;27.43;;
16669;SDS011;8448;52.034;5.158;2022-12-10T10:28:01;81.60;;;24.90;;
16669;SDS011;8448;52.034;5.158;2022-12-10T10:30:31;102.33;;;25.80;;
16669;SDS011;8448;52.034;5.158;2022-12-10T10:33:08;92.07;;;25.47;;
16669;SDS011;8448;52.034;5.158;2022-12-10T10:35:43;96.87;;;27.67;;
16669;SDS011;8448;52.034;5.158;2022-12-10T10:38:17;100.47;;;28.17;;
16669;SDS011;8448;52.034;5.158;2022-12-10T10:40:49;83.40;;;26.63;;
16669;SDS011;8448;52.034;5.158;2022-12-10T10:43:19;95.60;;;27.20;;
16669;SDS011;8448;52.034;5.158;2022-12-10T10:45:50;94.77;;;26.10;;
16669;SDS011;8448;52.034;5.158;2022-12-10T10:48:19;91.53;;;27.80;;
16669;SDS011;8448;52.034;5.158;2022-12-10T10:50:49;89.00;;;27.60;;
16669;SDS011;8448;52.034;5.158;2022-12-10T10:53:25;88.03;;;26.30;;
16669;SDS011;8448;52.034;5.158;2022-12-10T10:55:55;99.67;;;27.67;;
16669;SDS011;8448;52.034;5.158;2022-12-10T10:58:25;98.43;;;26.57;;
16669;SDS011;8448;52.034;5.158;2022-12-10T11:00:56;83.07;;;26.33;;
16669;SDS011;8448;52.034;5.158;2022-12-10T11:03:25;91.93;;;25.80;;
16669;SDS011;8448;52.034;5.158;2022-12-10T11:05:53;82.13;;;25.13;;
16669;SDS011;8448;52.034;5.158;2022-12-10T11:08:21;82.27;;;26.33;;
16669;SDS011;8448;52.034;5.158;2022-12-10T11:10:55;104.37;;;26.67;;
16669;SDS011;8448;52.034;5.158;2022-12-10T11:13:27;85.97;;;25.53;;
16669;SDS011;8448;52.034;5.158;2022-12-10T11:15:59;84.17;;;26.63;;
16669;SDS011;8448;52.034;5.158;2022-12-10T11:18:31;102.97;;;27.47;;
16669;SDS011;8448;52.034;5.158;2022-12-10T11:21:01;112.50;;;26.13;;
16669;SDS011;8448;52.034;5.158;2022-12-10T11:23:30;94.87;;;26.23;;
16669;SDS011;8448;52.034;5.158;2022-12-10T11:26:15;81.83;;;25.00;;
16669;SDS011;8448;52.034;5.158;2022-12-10T11:29:07;88.77;;;24.97;;
16669;SDS011;8448;52.034;5.158;2022-12-10T11:31:49;88.67;;;24.37;;
16669;SDS011;8448;52.034;5.158;2022-12-10T11:34:26;72.90;;;24.27;;
16669;SDS011;8448;52.034;5.158;2022-12-10T11:36:58;99.73;;;24.63;;
16669;SDS011;8448;52.034;5.158;2022-12-10T11:39:31;81.73;;;26.27;;
16669;SDS011;8448;52.034;5.158;2022-12-10T11:42:09;74.10;;;24.07;;
16669;SDS011;8448;52.034;5.158;2022-12-10T11:44:40;74.80;;;25.23;;
16669;SDS011;8448;52.034;5.158;2022-12-10T11:47:21;75.07;;;25.17;;
16669;SDS011;8448;52.034;5.158;2022-12-10T11:50:05;87.00;;;25.80;;
16669;SDS011;8448;52.034;5.158;2022-12-10T11:52:44;81.10;;;25.60;;
16669;SDS011;8448;52.034;5.158;2022-12-10T11:55:23;81.43;;;25.33;;
16669;SDS011;8448;52.034;5.158;2022-12-10T11:57:56;86.80;;;25.27;;
16669;SDS011;8448;52.034;5.158;2022-12-10T12:00:37;78.67;;;24.97;;
16669;SDS011;8448;52.034;5.158;2022-12-10T12:03:14;80.43;;;25.70;;
16669;SDS011;8448;52.034;5.158;2022-12-10T12:06:03;81.83;;;26.13;;
16669;SDS011;8448;52.034;5.158;2022-12-10T12:08:41;96.37;;;29.10;;
16669;SDS011;8448;52.034;5.158;2022-12-10T12:11:14;84.87;;;27.37;;
16669;SDS011;8448;52.034;5.158;2022-12-10T12:13:54;102.03;;;28.10;;
16669;SDS011;8448;52.034;5.158;2022-12-10T12:16:26;91.33;;;27.90;;
16669;SDS011;8448;52.034;5.158;2022-12-10T12:18:59;88.87;;;26.60;;
16669;SDS011;8448;52.034;5.158;2022-12-10T12:21:28;87.63;;;26.33;;
16669;SDS011;8448;52.034;5.158;2022-12-10T12:23:56;87.50;;;25.77;;
16669;SDS011;8448;52.034;5.158;2022-12-10T12:26:27;98.13;;;28.87;;
16669;SDS011;8448;52.034;5.158;2022-12-10T12:28:57;84.67;;;25.80;;
16669;SDS011;8448;52.034;5.158;2022-12-10T12:31:29;94.07;;;27.57;;
16669;SDS011;8448;52.034;5.158;2022-12-10T12:34:01;83.80;;;26.90;;
16669;SDS011;8448;52.034;5.158;2022-12-10T12:36:33;67.03;;;22.17;;
16669;SDS011;8448;52.034;5.158;2022-12-10T12:39:02;60.33;;;21.03;;
16669;SDS011;8448;52.034;5.158;2022-12-10T12:41:38;68.60;;;21.67;;
16669;SDS011;8448;52.034;5.158;2022-12-10T12:44:09;76.23;;;24.03;;
16669;SDS011;8448;52.034;5.158;2022-12-10T12:46:42;80.00;;;24.37;;
16669;SDS011;8448;52.034;5.158;2022-12-10T12:49:15;71.47;;;23.50;;
16669;SDS011;8448;52.034;5.158;2022-12-10T12:51:46;77.87;;;24.90;;
16669;SDS011;8448;52.034;5.158;2022-12-10T12:54:17;82.97;;;24.73;;
16669;SDS011;8448;52.034;5.158;2022-12-10T12:56:55;73.50;;;24.53;;
16669;SDS011;8448;52.034;5.158;2022-12-10T12:59:31;81.13;;;23.53;;
16669;SDS011;8448;52.034;5.158;2022-12-10T13:02:14;81.50;;;22.80;;
16669;SDS011;8448;52.034;5.158;2022-12-10T13:04:57;78.90;;;24.33;;
16669;SDS011;8448;52.034;5.158;2022-12-10T13:07:30;76.30;;;23.67;;
16669;SDS011;8448;52.034;5.158;2022-12-10T13:10:09;83.17;;;24.83;;
16669;SDS011;8448;52.034;5.158;2022-12-10T13:12:51;81.73;;;23.83;;
16669;SDS011;8448;52.034;5.158;2022-12-10T13:15:34;82.00;;;24.90;;
16669;SDS011;8448;52.034;5.158;2022-12-10T13:18:18;79.97;;;23.93;;
16669;SDS011;8448;52.034;5.158;2022-12-10T13:21:19;76.37;;;22.83;;
16669;SDS011;8448;52.034;5.158;2022-12-10T13:23:54;72.60;;;23.60;;
16669;SDS011;8448;52.034;5.158;2022-12-10T13:26:33;77.67;;;23.83;;
16669;SDS011;8448;52.034;5.158;2022-12-10T13:29:11;64.63;;;21.23;;
16669;SDS011;8448;52.034;5.158;2022-12-10T13:31:54;65.57;;;21.73;;
16669;SDS011;8448;52.034;5.158;2022-12-10T13:34:29;74.23;;;22.70;;
16669;SDS011;8448;52.034;5.158;2022-12-10T13:37:16;69.63;;;22.67;;
16669;SDS011;8448;52.034;5.158;2022-12-10T13:39:59;84.03;;;26.47;;
16669;SDS011;8448;52.034;5.158;2022-12-10T13:42:32;82.53;;;25.87;;
16669;SDS011;8448;52.034;5.158;2022-12-10T13:45:26;85.30;;;25.97;;
16669;SDS011;8448;52.034;5.158;2022-12-10T13:48:15;80.80;;;25.10;;
16669;SDS011;8448;52.034;5.158;2022-12-10T13:50:48;96.03;;;25.33;;
16669;SDS011;8448;52.034;5.158;2022-12-10T13:53:25;77.43;;;24.70;;
16669;SDS011;8448;52.034;5.158;2022-12-10T13:56:00;81.80;;;24.00;;
16669;SDS011;8448;52.034;5.158;2022-12-10T13:58:40;80.93;;;24.73;;
16669;SDS011;8448;52.034;5.158;2022-12-10T14:01:12;71.27;;;22.97;;
16669;SDS011;8448;52.034;5.158;2022-12-10T14:03:48;85.03;;;24.63;;
16669;SDS011;8448;52.034;5.158;2022-12-10T14:06:25;87.63;;;25.90;;
16669;SDS011;8448;52.034;5.158;2022-12-10T14:08:56;86.77;;;26.00;;
16669;SDS011;8448;52.034;5.158;2022-12-10T14:11:26;101.87;;;24.20;;
16669;SDS011;8448;52.034;5.158;2022-12-10T14:13:56;80.70;;;23.03;;
16669;SDS011;8448;52.034;5.158;2022-12-10T14:16:26;82.63;;;23.67;;
16669;SDS011;8448;52.034;5.158;2022-12-10T14:18:56;84.57;;;25.00;;
16669;SDS011;8448;52.034;5.158;2022-12-10T14:21:26;86.87;;;24.33;;
16669;SDS011;8448;52.034;5.158;2022-12-10T14:23:55;103.70;;;26.27;;
16669;SDS011;8448;52.034;5.158;2022-12-10T14:26:25;82.37;;;23.07;;
16669;SDS011;8448;52.034;5.158;2022-12-10T14:28:54;90.13;;;26.13;;
16669;SDS011;8448;52.034;5.158;2022-12-10T14:31:24;105.23;;;25.27;;
16669;SDS011;8448;52.034;5.158;2022-12-10T14:33:55;93.17;;;26.30;;
16669;SDS011;8448;52.034;5.158;2022-12-10T14:36:27;88.17;;;26.33;;
16669;SDS011;8448;52.034;5.158;2022-12-10T14:38:57;100.33;;;25.53;;
16669;SDS011;8448;52.034;5.158;2022-12-10T14:41:26;94.83;;;25.83;;
16669;SDS011;8448;52.034;5.158;2022-12-10T14:43:55;112.50;;;26.73;;
16669;SDS011;8448;52.034;5.158;2022-12-10T14:46:25;103.67;;;26.77;;
16669;SDS011;8448;52.034;5.158;2022-12-10T14:48:54;109.63;;;27.93;;
16669;SDS011;8448;52.034;5.158;2022-12-10T14:51:24;100.33;;;27.10;;
16669;SDS011;8448;52.034;5.158;2022-12-10T14:53:58;104.77;;;27.77;;
16669;SDS011;8448;52.034;5.158;2022-12-10T14:56:26;108.40;;;28.17;;